createdAt,value
2023-02-06T00:02:14.165Z,19.63
2023-02-06T00:04:42.998Z,18.95
2023-02-06T00:07:10.448Z,20.75
2023-02-06T00:09:37.953Z,22.17
2023-02-06T00:12:05.694Z,22.77
2023-02-06T00:14:33.449Z,20.35
2023-02-06T00:17:01.129Z,18.45
2023-02-06T00:19:28.554Z,20.33
2023-02-06T00:21:57.410Z,20.70
2023-02-06T00:24:24.872Z,20.92
2023-02-06T00:26:52.322Z,21.58
2023-02-06T00:29:19.786Z,22.27
2023-02-06T00:31:47.285Z,19.80
2023-02-06T00:34:14.789Z,20.42
2023-02-06T00:36:42.231Z,20.10
2023-02-06T00:39:11.047Z,21.85
2023-02-06T00:41:38.596Z,20.02
2023-02-06T00:44:06.321Z,18.85
2023-02-06T00:46:33.816Z,18.52
2023-02-06T00:49:01.340Z,17.88
2023-02-06T00:51:28.971Z,17.83
2023-02-06T00:53:56.743Z,16.85
2023-02-06T00:56:25.517Z,19.63
2023-02-06T00:58:53.007Z,17.58
2023-02-06T01:01:20.485Z,17.42
2023-02-06T01:03:48.011Z,17.48
2023-02-06T01:06:15.594Z,17.92
2023-02-06T01:08:43.049Z,18.13
2023-02-06T01:11:11.817Z,17.42
2023-02-06T01:13:41.027Z,17.23
2023-02-06T01:16:09.532Z,17.25
2023-02-06T01:18:37.013Z,17.80
2023-02-06T01:21:09.175Z,17.42
2023-02-06T01:23:36.965Z,18.42
2023-02-06T01:26:06.732Z,17.67
2023-02-06T01:28:36.670Z,17.27
2023-02-06T01:31:12.338Z,16.65
2023-02-06T01:33:39.885Z,15.65
2023-02-06T01:36:08.507Z,15.45
2023-02-06T01:38:36.003Z,14.85
2023-02-06T01:41:04.108Z,15.75
2023-02-06T01:43:34.208Z,16.20
2023-02-06T01:46:02.216Z,15.60
2023-02-06T01:48:35.897Z,14.27
2023-02-06T01:51:05.084Z,15.93
2023-02-06T01:53:32.617Z,16.98
2023-02-06T01:56:00.950Z,16.33
2023-02-06T01:58:31.484Z,16.52
2023-02-06T02:01:00.691Z,11.95
2023-02-06T02:03:28.807Z,15.52
2023-02-06T02:06:01.192Z,15.20
2023-02-06T02:08:32.023Z,15.63
2023-02-06T02:11:00.041Z,15.13
2023-02-06T02:13:27.613Z,15.00
2023-02-06T02:16:01.203Z,14.10
2023-02-06T02:18:42.911Z,14.45
2023-02-06T02:24:07.181Z,10.95
2023-02-06T02:27:03.469Z,13.45
2023-02-06T02:29:58.808Z,14.32
2023-02-06T02:32:46.356Z,14.90
2023-02-06T02:35:20.692Z,15.68
2023-02-06T02:37:57.808Z,15.18
2023-02-06T02:40:29.614Z,16.30
2023-02-06T02:43:05.823Z,16.83
2023-02-06T02:45:37.476Z,15.75
2023-02-06T02:48:08.107Z,14.18
2023-02-06T02:50:37.217Z,15.48
2023-02-06T02:53:05.436Z,15.52
2023-02-06T02:55:33.036Z,16.65
2023-02-06T02:58:04.963Z,14.65
2023-02-06T03:00:35.118Z,16.27
2023-02-06T03:03:02.853Z,15.15
2023-02-06T03:05:30.743Z,15.85
2023-02-06T03:08:09.540Z,14.30
2023-02-06T03:10:40.715Z,14.30
2023-02-06T03:13:11.835Z,13.98
2023-02-06T03:15:47.723Z,12.23
2023-02-06T03:18:19.757Z,12.10
2023-02-06T03:20:47.814Z,12.85
2023-02-06T03:23:20.156Z,13.20
2023-02-06T03:25:48.856Z,13.10
2023-02-06T03:28:19.392Z,11.85
2023-02-06T03:30:50.505Z,11.48
2023-02-06T03:33:20.927Z,8.95
2023-02-06T03:35:49.535Z,12.95
2023-02-06T03:38:18.355Z,12.00
2023-02-06T03:40:48.390Z,12.07
2023-02-06T03:43:18.714Z,12.40
2023-02-06T03:45:49.319Z,12.40
2023-02-06T03:48:19.217Z,13.93
2023-02-06T03:50:50.165Z,12.75
2023-02-06T03:53:20.159Z,12.35
2023-02-06T03:55:48.572Z,11.30
2023-02-06T03:58:16.162Z,11.90
2023-02-06T04:00:45.655Z,10.65
2023-02-06T04:03:14.289Z,10.85
2023-02-06T04:05:42.220Z,10.20
2023-02-06T04:08:09.826Z,11.10
2023-02-06T04:10:38.583Z,10.65
2023-02-06T04:13:06.035Z,10.10
2023-02-06T04:15:33.673Z,9.93
2023-02-06T04:18:01.986Z,10.27
2023-02-06T04:20:29.958Z,10.15
2023-02-06T04:22:57.745Z,9.57
2023-02-06T04:25:25.689Z,9.82
2023-02-06T04:27:54.629Z,8.88
2023-02-06T04:30:22.187Z,8.50
2023-02-06T04:32:49.743Z,9.95
2023-02-06T04:35:17.307Z,9.07
2023-02-06T04:37:44.780Z,9.45
2023-02-06T04:40:13.381Z,9.35
2023-02-06T04:42:40.916Z,8.95
2023-02-06T04:45:10.670Z,7.55
2023-02-06T04:47:38.147Z,7.85
2023-02-06T04:50:06.951Z,8.98
2023-02-06T04:52:34.515Z,8.98
2023-02-06T04:55:02.012Z,9.13
2023-02-06T04:57:29.478Z,8.90
2023-02-06T04:59:57.006Z,8.00
2023-02-06T05:02:25.881Z,8.20
2023-02-06T05:04:53.375Z,9.00
2023-02-06T05:07:21.001Z,8.05
2023-02-06T05:09:48.480Z,8.25
2023-02-06T05:12:15.908Z,8.45
2023-02-06T05:14:43.456Z,8.35
2023-02-06T05:17:10.881Z,8.38
2023-02-06T05:19:39.705Z,8.27
2023-02-06T05:22:07.199Z,7.63
2023-02-06T05:24:34.689Z,8.23
2023-02-06T05:27:02.218Z,8.30
2023-02-06T05:29:29.769Z,8.13
2023-02-06T05:31:57.281Z,8.77
2023-02-06T05:34:24.959Z,7.90
2023-02-06T05:36:53.785Z,8.57
2023-02-06T05:39:21.315Z,8.63
2023-02-06T05:41:48.782Z,9.35
2023-02-06T05:44:16.239Z,9.30
2023-02-06T05:46:44.237Z,9.65
2023-02-06T05:49:11.786Z,9.52
2023-02-06T05:51:39.237Z,9.35
2023-02-06T05:54:08.079Z,9.20
2023-02-06T05:56:35.627Z,9.88
2023-02-06T05:59:03.150Z,9.98
2023-02-06T06:01:30.615Z,10.75
2023-02-06T06:03:58.158Z,9.32
2023-02-06T06:06:25.656Z,9.88
2023-02-06T06:08:53.413Z,9.27
2023-02-06T06:11:22.212Z,9.00
2023-02-06T06:13:50.194Z,9.02
2023-02-06T06:16:17.766Z,9.23
2023-02-06T06:18:45.251Z,10.02
2023-02-06T06:21:12.716Z,9.18
2023-02-06T06:23:40.181Z,8.82
2023-02-06T06:26:07.655Z,9.20
2023-02-06T06:28:38.579Z,8.65
2023-02-06T06:31:07.792Z,8.35
2023-02-06T06:33:35.886Z,9.57
2023-02-06T06:36:05.123Z,9.90
2023-02-06T06:38:34.111Z,9.82
2023-02-06T06:41:10.958Z,9.30
2023-02-06T06:43:39.812Z,9.35
2023-02-06T06:46:07.360Z,9.63
2023-02-06T06:48:36.555Z,10.35
2023-02-06T06:51:04.129Z,10.30
2023-02-06T06:53:31.586Z,10.50
2023-02-06T06:56:03.719Z,12.00
2023-02-06T06:58:31.261Z,11.23
2023-02-06T07:01:00.367Z,11.57
2023-02-06T07:03:27.912Z,12.00
2023-02-06T07:05:55.514Z,11.48
2023-02-06T07:08:23.069Z,13.07
2023-02-06T07:10:50.539Z,13.48
2023-02-06T07:13:18.021Z,14.23
2023-02-06T07:15:45.507Z,13.30
2023-02-06T07:18:14.316Z,14.73
2023-02-06T07:20:41.828Z,14.30
2023-02-06T07:23:09.281Z,13.20
2023-02-06T07:25:37.049Z,12.98
2023-02-06T07:28:04.736Z,12.38
2023-02-06T07:30:32.415Z,13.57
2023-02-06T07:32:59.929Z,13.45
2023-02-06T07:35:28.814Z,13.88
2023-02-06T07:37:56.491Z,13.50
2023-02-06T07:40:26.344Z,13.32
2023-02-06T07:42:55.112Z,9.40
2023-02-06T07:45:22.554Z,14.05
2023-02-06T07:47:52.013Z,15.02
2023-02-06T07:50:19.569Z,13.88
2023-02-06T07:52:48.363Z,13.70
2023-02-06T07:55:16.006Z,14.50
2023-02-06T07:57:43.564Z,14.07
2023-02-06T08:00:12.268Z,14.20
2023-02-06T08:02:39.897Z,15.30
2023-02-06T08:05:08.302Z,14.20
2023-02-06T08:07:36.078Z,14.68
2023-02-06T08:10:05.057Z,15.13
2023-02-06T08:12:32.860Z,16.20
2023-02-06T08:15:00.341Z,17.17
2023-02-06T08:17:28.034Z,17.15
2023-02-06T08:19:55.556Z,18.85
2023-02-06T08:22:23.059Z,16.27
2023-02-06T08:24:50.503Z,16.95
2023-02-06T08:27:19.311Z,15.60
2023-02-06T08:29:47.002Z,15.43
2023-02-06T08:32:14.453Z,15.25
2023-02-06T08:34:42.162Z,14.98
2023-02-06T08:37:09.688Z,16.48
2023-02-06T08:39:38.138Z,17.00
2023-02-06T08:42:05.672Z,17.48
2023-02-06T08:44:34.510Z,15.90
2023-02-06T08:47:10.206Z,16.73
2023-02-06T08:49:38.206Z,14.55
2023-02-06T08:52:05.987Z,16.10
2023-02-06T08:54:35.988Z,16.00
2023-02-06T08:57:06.601Z,16.50
2023-02-06T08:59:35.409Z,17.23
2023-02-06T09:02:02.898Z,16.45
2023-02-06T09:04:31.719Z,17.48
2023-02-06T09:06:59.196Z,16.23
2023-02-06T09:09:26.687Z,17.98
2023-02-06T09:11:55.453Z,18.80
2023-02-06T09:14:22.969Z,18.67
2023-02-06T09:16:51.935Z,19.67
2023-02-06T09:19:19.433Z,21.30
2023-02-06T09:21:46.893Z,22.02
2023-02-06T09:24:14.379Z,19.83
2023-02-06T09:26:58.509Z,20.88
2023-02-06T09:29:28.698Z,20.77
2023-02-06T09:31:58.065Z,20.75
2023-02-06T09:34:26.633Z,22.98
2023-02-06T09:36:55.052Z,22.90
2023-02-06T09:39:22.808Z,24.02
2023-02-06T09:41:52.079Z,23.00
2023-02-06T09:44:23.875Z,25.75
2023-02-06T09:49:23.796Z,21.90
2023-02-06T09:52:15.687Z,24.65
2023-02-06T09:54:47.830Z,24.02
2023-02-06T09:57:20.951Z,24.17
2023-02-06T09:59:52.401Z,24.35
2023-02-06T10:02:31.344Z,24.92
2023-02-06T10:05:04.617Z,26.80
2023-02-06T10:07:45.960Z,25.80
2023-02-06T10:10:18.157Z,20.40
2023-02-06T10:12:47.573Z,27.38
2023-02-06T10:15:17.923Z,28.27
2023-02-06T10:17:50.239Z,26.92
2023-02-06T10:20:23.010Z,27.40
2023-02-06T10:22:55.104Z,31.17
2023-02-06T10:25:26.254Z,29.13
2023-02-06T10:27:57.713Z,28.23
2023-02-06T10:30:34.357Z,28.23
2023-02-06T10:33:11.809Z,27.77
2023-02-06T10:35:52.730Z,26.08
2023-02-06T10:38:58.943Z,24.50
2023-02-06T10:41:32.311Z,25.25
2023-02-06T10:44:05.143Z,23.00
2023-02-06T10:46:42.252Z,22.05
2023-02-06T10:49:19.771Z,23.40
2023-02-06T10:51:52.827Z,20.55
2023-02-06T10:54:23.468Z,20.50
2023-02-06T10:56:53.025Z,21.27
2023-02-06T10:59:24.754Z,21.75
2023-02-06T11:01:55.086Z,21.42
2023-02-06T11:04:27.830Z,17.67
2023-02-06T11:07:01.656Z,20.20
2023-02-06T11:09:29.185Z,18.60
2023-02-06T11:11:58.194Z,18.65
2023-02-06T11:14:28.423Z,17.70
2023-02-06T11:16:56.975Z,19.70
2023-02-06T11:19:26.951Z,19.48
2023-02-06T11:21:58.032Z,21.15
2023-02-06T11:24:26.137Z,22.50
2023-02-06T11:26:56.494Z,20.75
2023-02-06T11:29:26.480Z,22.17
2023-02-06T11:31:58.581Z,21.00
2023-02-06T11:34:29.380Z,17.23
2023-02-06T11:36:59.767Z,21.48
2023-02-06T11:39:31.207Z,21.73
2023-02-06T11:42:01.295Z,19.55
2023-02-06T11:44:30.277Z,21.48
2023-02-06T11:46:58.028Z,21.23
2023-02-06T11:49:29.072Z,21.10
2023-02-06T11:52:00.129Z,16.67
2023-02-06T11:54:29.913Z,20.77
2023-02-06T11:57:04.253Z,21.63
2023-02-06T11:59:34.544Z,23.08
2023-02-06T12:02:05.682Z,21.58
2023-02-06T12:04:36.713Z,22.40
2023-02-06T12:07:12.102Z,21.40
2023-02-06T12:09:39.609Z,23.02
2023-02-06T12:12:14.583Z,21.60
2023-02-06T12:14:46.502Z,20.85
2023-02-06T12:17:22.360Z,21.92
2023-02-06T12:19:52.283Z,21.58
2023-02-06T12:22:24.032Z,22.35
2023-02-06T12:27:24.123Z,22.27
2023-02-06T12:29:57.912Z,22.55
2023-02-06T12:32:30.868Z,22.33
2023-02-06T12:35:01.032Z,22.48
2023-02-06T12:37:32.857Z,22.13
2023-02-06T12:42:39.859Z,21.90
2023-02-06T12:45:18.704Z,22.58
2023-02-06T12:47:52.499Z,22.85
2023-02-06T12:50:23.648Z,21.38
2023-02-06T12:52:56.189Z,18.10
2023-02-06T12:55:27.335Z,21.65
2023-02-06T12:57:55.172Z,20.50
2023-02-06T13:00:38.160Z,22.75
2023-02-06T13:03:29.453Z,22.23
2023-02-06T13:06:03.594Z,17.00
2023-02-06T13:08:46.845Z,21.88
2023-02-06T13:11:23.756Z,20.73
2023-02-06T13:14:00.461Z,22.83
2023-02-06T13:16:38.949Z,21.75
2023-02-06T13:19:06.498Z,22.77
2023-02-06T13:21:36.709Z,22.35
2023-02-06T13:24:16.072Z,21.40
2023-02-06T13:27:04.402Z,20.50
2023-02-06T13:29:33.424Z,21.08
2023-02-06T13:32:46.980Z,20.55
2023-02-06T13:35:22.181Z,20.98
2023-02-06T13:37:51.306Z,20.50
2023-02-06T13:40:27.610Z,20.13
2023-02-06T13:42:56.892Z,20.65
2023-02-06T13:45:25.960Z,20.85
2023-02-06T13:48:33.310Z,20.90
2023-02-06T13:51:09.652Z,20.05
2023-02-06T13:53:55.487Z,20.92
2023-02-06T13:56:39.678Z,21.10
2023-02-06T13:59:13.368Z,20.30
2023-02-06T14:01:41.443Z,19.52
2023-02-06T14:04:10.868Z,21.33
2023-02-06T14:06:55.149Z,20.13
2023-02-06T14:09:50.345Z,21.58
2023-02-06T14:12:31.941Z,18.63
2023-02-06T14:15:26.102Z,19.25
2023-02-06T14:18:11.722Z,18.75
2023-02-06T14:20:48.682Z,20.10
2023-02-06T14:23:22.508Z,18.42
2023-02-06T14:26:03.492Z,19.52
2023-02-06T14:28:39.053Z,22.00
2023-02-06T14:31:16.381Z,21.13
2023-02-06T14:33:54.483Z,20.98
2023-02-06T14:36:37.778Z,19.75
2023-02-06T14:39:32.121Z,19.88
2023-02-06T14:41:59.725Z,20.77
2023-02-06T14:44:32.040Z,18.83
2023-02-06T14:46:59.821Z,19.98
2023-02-06T14:49:32.634Z,19.77
2023-02-06T14:52:01.299Z,18.92
2023-02-06T14:54:31.956Z,22.58
2023-02-06T14:57:00.878Z,22.05
2023-02-06T14:59:30.253Z,22.45
2023-02-06T15:01:59.659Z,23.45
2023-02-06T15:04:29.041Z,25.75
2023-02-06T15:06:58.648Z,22.45
2023-02-06T15:09:28.359Z,22.75
2023-02-06T15:11:57.404Z,22.10
2023-02-06T15:14:26.784Z,21.25
2023-02-06T15:16:59.249Z,20.25
2023-02-06T15:19:28.301Z,20.63
2023-02-06T15:21:59.105Z,21.67
2023-02-06T15:24:49.063Z,21.30
2023-02-06T15:27:25.790Z,19.05
2023-02-06T15:29:53.781Z,18.42
2023-02-06T15:32:30.474Z,17.85
2023-02-06T15:34:58.124Z,24.92
2023-02-06T15:37:28.950Z,21.05
2023-02-06T15:39:58.740Z,19.77
2023-02-06T15:42:26.333Z,17.33
2023-02-06T15:44:53.873Z,17.48
2023-02-06T15:47:21.658Z,16.83
2023-02-06T15:49:51.843Z,17.52
2023-02-06T15:52:34.244Z,16.48
2023-02-06T15:55:02.519Z,17.25
2023-02-06T15:57:32.703Z,20.55
2023-02-06T16:00:00.545Z,20.98
2023-02-06T16:02:33.045Z,29.85
2023-02-06T16:05:02.819Z,30.90
2023-02-06T16:07:32.557Z,39.05
2023-02-06T16:10:03.923Z,48.83
2023-02-06T16:12:34.023Z,47.20
2023-02-06T16:15:02.695Z,40.00
2023-02-06T16:17:32.903Z,36.97
2023-02-06T16:20:04.537Z,31.05
2023-02-06T16:22:33.611Z,30.73
2023-02-06T16:25:20.930Z,30.17
2023-02-06T16:27:51.117Z,34.95
2023-02-06T16:30:28.225Z,32.10
2023-02-06T16:32:57.349Z,27.15
2023-02-06T16:35:26.831Z,26.95
2023-02-06T16:37:55.046Z,25.33
2023-02-06T16:40:22.550Z,24.98
2023-02-06T16:42:50.406Z,25.38
2023-02-06T16:45:20.769Z,24.70
2023-02-06T16:47:48.475Z,23.85
2023-02-06T16:50:16.679Z,23.55
2023-02-06T16:52:49.889Z,22.17
2023-02-06T16:55:22.056Z,20.65
2023-02-06T16:57:52.745Z,19.70
2023-02-06T17:00:23.770Z,20.60
2023-02-06T17:02:52.852Z,15.27
2023-02-06T17:05:21.615Z,20.80
2023-02-06T17:07:50.806Z,19.75
2023-02-06T17:10:19.940Z,21.95
2023-02-06T17:12:48.088Z,22.13
2023-02-06T17:15:16.532Z,23.38
2023-02-06T17:17:44.364Z,24.35
2023-02-06T17:20:23.800Z,25.85
2023-02-06T17:22:52.753Z,24.50
2023-02-06T17:25:20.179Z,24.13
2023-02-06T17:27:47.694Z,23.38
2023-02-06T17:30:18.412Z,23.90
2023-02-06T17:32:46.004Z,24.52
2023-02-06T17:35:13.576Z,22.92
2023-02-06T17:37:41.218Z,23.20
2023-02-06T17:40:13.079Z,24.55
2023-02-06T17:42:41.291Z,23.52
2023-02-06T17:45:11.038Z,22.88
2023-02-06T17:47:38.523Z,22.73
2023-02-06T17:50:06.625Z,24.70
2023-02-06T17:52:34.179Z,23.92
2023-02-06T17:55:01.830Z,23.85
2023-02-06T17:57:30.841Z,23.80
2023-02-06T17:59:58.590Z,23.00
2023-02-06T18:02:26.112Z,22.65
2023-02-06T18:04:54.198Z,24.45
2023-02-06T18:07:21.955Z,22.60
2023-02-06T18:09:49.530Z,22.63
2023-02-06T18:12:17.115Z,22.58
2023-02-06T18:14:47.970Z,22.25
2023-02-06T18:17:15.477Z,17.50
2023-02-06T18:19:44.120Z,22.48
2023-02-06T18:22:13.822Z,21.15
2023-02-06T18:24:41.490Z,21.73
2023-02-06T18:27:09.696Z,23.30
2023-02-06T18:29:49.375Z,27.70
2023-02-06T18:32:20.774Z,27.48
2023-02-06T18:34:48.884Z,26.63
2023-02-06T18:37:16.855Z,27.23
2023-02-06T18:39:44.395Z,25.27
2023-02-06T18:42:29.867Z,27.38
2023-02-06T18:44:57.400Z,29.30
2023-02-06T18:47:26.234Z,29.35
2023-02-06T18:49:53.743Z,28.80
2023-02-06T18:52:21.321Z,30.00
2023-02-06T18:54:49.821Z,27.00
2023-02-06T18:57:17.358Z,26.55
2023-02-06T18:59:44.798Z,26.80
2023-02-06T19:02:12.991Z,28.40
2023-02-06T19:04:41.908Z,28.02
2023-02-06T19:07:11.700Z,27.90
2023-02-06T19:09:39.297Z,27.33
2023-02-06T19:12:07.438Z,26.70
2023-02-06T19:14:35.901Z,25.20
2023-02-06T19:17:03.375Z,26.63
2023-02-06T19:19:30.973Z,27.13
2023-02-06T19:21:59.745Z,25.52
2023-02-06T19:24:28.225Z,26.00
2023-02-06T19:26:56.755Z,24.17
2023-02-06T19:29:35.214Z,23.70
2023-02-06T19:32:04.784Z,24.88
2023-02-06T19:34:35.933Z,24.73
2023-02-06T19:37:05.487Z,23.35
2023-02-06T19:39:34.317Z,23.95
2023-02-06T19:42:03.744Z,25.67
2023-02-06T19:44:33.404Z,22.87
2023-02-06T19:47:00.881Z,25.10
2023-02-06T19:49:28.571Z,24.00
2023-02-06T19:51:56.140Z,25.15
2023-02-06T19:54:25.088Z,24.70
2023-02-06T19:56:52.648Z,24.70
2023-02-06T19:59:21.908Z,27.48
2023-02-06T20:01:50.829Z,27.75
2023-02-06T20:04:19.088Z,29.08
2023-02-06T20:06:47.081Z,31.98
2023-02-06T20:09:16.772Z,29.17
2023-02-06T20:11:45.937Z,26.48
2023-02-06T20:14:13.795Z,23.20
2023-02-06T20:16:42.924Z,21.23
2023-02-06T20:19:14.778Z,23.70
2023-02-06T20:21:44.115Z,23.45
2023-02-06T20:24:13.574Z,23.55
2023-02-06T20:26:43.242Z,24.63
2023-02-06T20:29:19.126Z,22.67
2023-02-06T20:31:46.836Z,26.70
2023-02-06T20:34:14.801Z,27.00
2023-02-06T20:36:42.625Z,27.00
2023-02-06T20:39:12.332Z,29.50
2023-02-06T20:41:40.127Z,32.50
2023-02-06T20:44:08.058Z,31.40
2023-02-06T20:46:37.552Z,33.65
2023-02-06T20:49:09.119Z,36.10
2023-02-06T20:54:04.547Z,35.65
2023-02-06T20:56:32.033Z,33.15
2023-02-06T20:59:01.057Z,31.42
2023-02-06T21:01:30.785Z,33.30
2023-02-06T21:04:02.625Z,34.47
2023-02-06T21:06:30.710Z,30.65
2023-02-06T21:09:00.202Z,32.28
2023-02-06T21:11:29.508Z,31.15
2023-02-06T21:13:58.609Z,29.95
2023-02-06T21:16:26.766Z,29.88
2023-02-06T21:18:54.503Z,33.53
2023-02-06T21:21:23.834Z,32.60
2023-02-06T21:23:51.387Z,34.60
2023-02-06T21:26:19.283Z,31.45
2023-02-06T21:28:47.166Z,31.30
2023-02-06T21:31:17.716Z,35.65
2023-02-06T21:33:46.723Z,23.92
2023-02-06T21:36:14.769Z,32.20
2023-02-06T21:38:44.336Z,31.92
2023-02-06T21:41:14.180Z,30.33
2023-02-06T21:43:42.049Z,30.73
2023-02-06T21:46:10.315Z,31.02
2023-02-06T21:48:38.096Z,31.55
2023-02-06T21:51:09.361Z,33.60
2023-02-06T21:53:36.895Z,33.88
2023-02-06T21:56:08.019Z,33.08
2023-02-06T21:58:35.507Z,30.40
2023-02-06T22:01:03.449Z,30.98
2023-02-06T22:03:30.906Z,35.38
2023-02-06T22:06:07.382Z,35.42
2023-02-06T22:08:36.128Z,33.88
2023-02-06T22:11:03.605Z,34.55
2023-02-06T22:13:32.413Z,34.28
2023-02-06T22:15:59.886Z,33.63
2023-02-06T22:18:27.425Z,31.65
2023-02-06T22:21:04.641Z,31.67
2023-02-06T22:23:32.182Z,32.67
2023-02-06T22:25:59.670Z,30.95
2023-02-06T22:28:27.500Z,31.73
2023-02-06T22:30:56.362Z,30.77
2023-02-06T22:33:23.917Z,29.75
2023-02-06T22:35:51.398Z,29.52
2023-02-06T22:38:18.857Z,28.17
2023-02-06T22:40:46.407Z,29.30
2023-02-06T22:43:13.898Z,28.80
2023-02-06T22:45:41.406Z,27.27
2023-02-06T22:48:10.240Z,29.65
2023-02-06T22:50:37.710Z,29.05
2023-02-06T22:53:22.681Z,31.77
2023-02-06T22:56:08.008Z,29.45
2023-02-06T22:58:35.540Z,30.08
2023-02-06T23:01:04.172Z,30.00
2023-02-06T23:03:33.283Z,29.70
2023-02-06T23:06:02.467Z,30.52
2023-02-06T23:08:30.186Z,30.83
2023-02-06T23:10:58.095Z,27.70
2023-02-06T23:13:25.909Z,30.30
2023-02-06T23:15:55.729Z,28.88
2023-02-06T23:18:23.384Z,26.75
2023-02-06T23:20:56.325Z,29.23
2023-02-06T23:23:24.290Z,30.42
2023-02-06T23:25:52.422Z,30.17
2023-02-06T23:28:20.414Z,29.92
2023-02-06T23:30:48.432Z,31.35
2023-02-06T23:33:17.252Z,31.55
2023-02-06T23:35:44.912Z,29.20
2023-02-06T23:38:13.903Z,31.60
2023-02-06T23:40:41.560Z,34.58
2023-02-06T23:43:09.063Z,34.83
2023-02-06T23:45:37.089Z,33.10
2023-02-06T23:48:05.268Z,34.22
2023-02-06T23:50:32.812Z,35.28
2023-02-06T23:53:00.292Z,37.35
2023-02-06T23:55:30.480Z,42.83
2023-02-06T23:57:58.096Z,39.90
